Time;durP1;ratioP1;P1;durP2;ratioP2;P2;SDS_P1;SDS_P2;PMS_P1;PMS_P2;Temp;Humidity;BMP_temperature;BMP_pressure;BME280_temperature;BME280_humidity;BME280_pressure;Samples;Min_cycle;Max_cycle;Signal;HPM_P1;HPM_P2
2023/07/29 00:00:43;;;;;;;8.27;4.70;;;19.70;99.90;;;;;;5051507;28;20178;-47
2023/07/29 00:03:09;;;;;;;4.20;2.28;;;19.80;99.90;;;;;;5050764;28;20173;-46
2023/07/29 00:05:36;;;;;;;4.90;2.20;;;19.90;99.90;;;;;;5050813;28;20246;-47
2023/07/29 00:08:02;;;;;;;2.05;1.55;;;19.90;99.90;;;;;;5050817;28;20158;-47
2023/07/29 00:10:28;;;;;;;5.15;1.90;;;19.80;99.90;;;;;;5050442;28;20261;-46
2023/07/29 00:12:54;;;;;;;3.25;2.05;;;19.80;99.90;;;;;;5050555;28;20704;-47
2023/07/29 00:15:19;;;;;;;6.47;4.20;;;19.80;99.90;;;;;;5050523;28;20179;-47
2023/07/29 00:17:45;;;;;;;3.22;1.90;;;19.80;99.90;;;;;;5051118;28;20175;-47
2023/07/29 00:20:10;;;;;;;3.33;2.05;;;19.70;99.90;;;;;;5050982;28;20170;-47
2023/07/29 00:22:36;;;;;;;1.90;1.77;;;19.60;99.90;;;;;;5050540;28;20254;-48
2023/07/29 00:25:02;;;;;;;2.17;1.80;;;19.80;99.90;;;;;;5050490;28;20634;-47
2023/07/29 00:27:27;;;;;;;3.80;2.13;;;19.80;99.90;;;;;;5050426;28;20175;-47
2023/07/29 00:29:53;;;;;;;2.40;1.77;;;19.90;99.90;;;;;;5050450;28;20171;-47
2023/07/29 00:32:18;;;;;;;3.88;2.03;;;19.70;99.90;;;;;;5051691;28;20163;-49
2023/07/29 00:34:44;;;;;;;2.42;2.10;;;19.60;99.90;;;;;;5054627;28;20175;-50
2023/07/29 00:37:10;;;;;;;2.30;2.00;;;19.50;99.90;;;;;;5054338;28;20260;-51
2023/07/29 00:39:37;;;;;;;5.72;2.45;;;19.70;99.90;;;;;;5054630;28;20178;-51
2023/07/29 00:42:03;;;;;;;3.42;1.90;;;19.60;99.90;;;;;;5036547;28;20162;-52
2023/07/29 00:44:28;;;;;;;2.78;2.05;;;19.50;99.90;;;;;;5054317;28;20177;-52
2023/07/29 00:46:55;;;;;;;2.13;1.85;;;19.50;99.90;;;;;;5054118;28;20627;-51
2023/07/29 00:49:21;;;;;;;5.30;2.63;;;19.50;99.90;;;;;;5054245;28;20213;-52
2023/07/29 00:51:47;;;;;;;5.93;3.45;;;19.50;99.90;;;;;;5054207;28;20174;-51
2023/07/29 00:54:13;;;;;;;2.47;1.80;;;19.50;99.90;;;;;;5054461;28;20194;-49
2023/07/29 00:56:40;;;;;;;6.85;1.98;;;19.70;99.90;;;;;;5053962;28;20202;-51
2023/07/29 00:59:05;;;;;;;2.08;1.70;;;19.50;99.90;;;;;;5053938;28;20220;-50
2023/07/29 01:01:31;;;;;;;1.95;1.85;;;19.70;99.90;;;;;;5053916;28;20623;-52
2023/07/29 01:03:57;;;;;;;3.22;1.90;;;19.50;99.90;;;;;;5053528;28;20182;-49
2023/07/29 01:06:31;;;;;;;2.55;1.70;;;19.70;99.90;;;;;;5053917;28;20179;-51
2023/07/29 01:09:08;;;;;;;4.40;1.90;;;19.70;99.90;;;;;;5053890;28;20638;-51
2023/07/29 01:11:59;;;;;;;1.90;1.65;;;19.60;99.90;;;;;;5053287;28;20222;-49
2023/07/29 01:14:37;;;;;;;2.17;1.67;;;19.70;99.90;;;;;;5053857;28;20163;-50
2023/07/29 01:17:07;;;;;;;4.20;1.92;;;19.60;99.90;;;;;;5053661;28;20741;-54
2023/07/29 01:20:05;;;;;;;6.53;2.33;;;19.70;99.90;;;;;;5053693;28;20635;-52
2023/07/29 01:22:32;;;;;;;4.72;2.45;;;19.70;99.90;;;;;;5053855;28;20170;-52
2023/07/29 01:24:59;;;;;;;2.42;2.17;;;19.70;99.90;;;;;;5053457;28;20523;-51
2023/07/29 01:27:24;;;;;;;2.60;2.20;;;19.70;99.90;;;;;;5053881;28;20507;-52
2023/07/29 01:29:50;;;;;;;5.68;2.30;;;19.70;99.90;;;;;;5053507;28;20220;-52
2023/07/29 01:32:39;;;;;;;3.88;2.08;;;19.60;99.90;;;;;;5053209;28;20177;-51
2023/07/29 01:35:17;;;;;;;3.75;2.35;;;19.60;99.90;;;;;;5030839;28;20184;-50
2023/07/29 01:37:47;;;;;;;5.05;2.20;;;19.70;99.90;;;;;;5034232;28;20218;-52
2023/07/29 01:40:13;;;;;;;5.00;2.20;;;17.20;99.90;;;;;;5033800;28;20255;-52
2023/07/29 01:42:39;;;;;;;8.73;2.22;;;19.50;99.90;;;;;;5033194;28;20167;-52
2023/07/29 01:45:05;;;;;;;10.43;3.00;;;19.50;99.90;;;;;;5033232;28;20229;-52
2023/07/29 01:47:31;;;;;;;5.95;2.90;;;19.50;99.90;;;;;;5033237;28;20294;-52
2023/07/29 01:49:56;;;;;;;10.48;3.40;;;19.50;99.90;;;;;;5033489;28;20274;-52
2023/07/29 01:52:22;;;;;;;8.38;3.45;;;19.50;99.90;;;;;;5033171;28;20228;-52
2023/07/29 01:54:48;;;;;;;6.50;3.80;;;19.60;99.90;;;;;;5033150;28;20163;-51
2023/07/29 01:57:13;;;;;;;11.02;3.97;;;19.70;99.90;;;;;;5032325;28;20214;-50
2023/07/29 01:59:39;;;;;;;8.88;3.53;;;19.60;99.90;;;;;;5032995;28;20524;-51
2023/07/29 02:02:05;;;;;;;11.05;3.28;;;19.60;99.90;;;;;;5036440;28;20253;-51
2023/07/29 02:04:30;;;;;;;8.43;3.35;;;19.40;99.90;;;;;;5052760;28;20167;-49
2023/07/29 02:06:56;;;;;;;9.50;3.55;;;19.50;99.90;;;;;;5052713;28;20170;-52
2023/07/29 02:09:21;;;;;;;9.32;3.80;;;19.50;99.90;;;;;;5051544;28;20181;-51
2023/07/29 02:11:47;;;;;;;8.90;3.20;;;19.40;99.90;;;;;;5052465;28;20224;-47
2023/07/29 02:14:12;;;;;;;5.60;3.47;;;19.40;99.90;;;;;;5053165;28;20171;-47
2023/07/29 02:16:38;;;;;;;3.70;2.80;;;19.40;99.90;;;;;;5052830;28;20199;-48
2023/07/29 02:19:04;;;;;;;4.25;3.28;;;19.50;99.90;;;;;;5052823;28;20604;-47
2023/07/29 02:21:30;;;;;;;6.90;2.83;;;19.50;99.90;;;;;;5052582;28;20191;-47
2023/07/29 02:23:55;;;;;;;7.85;2.60;;;19.60;99.90;;;;;;5052782;28;20634;-47
2023/07/29 02:26:21;;;;;;;8.10;2.58;;;19.60;99.90;;;;;;5052298;28;20167;-47
2023/07/29 02:28:47;;;;;;;6.22;2.97;;;19.40;99.90;;;;;;5052420;28;20206;-47
2023/07/29 02:31:21;;;;;;;3.05;2.15;;;19.60;99.90;;;;;;5052811;28;20216;-47
2023/07/29 02:33:47;;;;;;;6.05;2.58;;;19.40;99.90;;;;;;5052264;28;20167;-47
2023/07/29 02:36:14;;;;;;;2.95;2.13;;;19.60;99.90;;;;;;5051150;28;20221;-47
2023/07/29 02:38:40;;;;;;;4.32;2.25;;;19.60;99.90;;;;;;5052588;28;20524;-47
2023/07/29 02:41:06;;;;;;;5.20;2.13;;;19.60;99.90;;;;;;5052324;28;20626;-47
2023/07/29 02:43:31;;;;;;;6.80;2.50;;;19.50;99.90;;;;;;5052357;28;20210;-48
2023/07/29 02:45:57;;;;;;;4.78;2.25;;;19.60;99.90;;;;;;5052172;28;20175;-47
2023/07/29 02:48:22;;;;;;;4.18;2.70;;;19.30;99.90;;;;;;5051981;28;20232;-47
2023/07/29 02:50:48;;;;;;;4.28;2.20;;;19.30;99.90;;;;;;5051900;28;20171;-48
2023/07/29 02:53:14;;;;;;;3.20;2.40;;;19.30;99.90;;;;;;5052044;28;20174;-47
2023/07/29 02:55:40;;;;;;;4.07;2.33;;;19.40;99.90;;;;;;5050115;28;20206;-47
2023/07/29 02:58:06;;;;;;;7.65;2.92;;;19.40;99.90;;;;;;5052001;28;20178;-50
2023/07/29 03:00:32;;;;;;;5.88;2.47;;;19.30;99.90;;;;;;5052012;28;20622;-51
2023/07/29 03:02:58;;;;;;;4.63;2.30;;;19.40;99.90;;;;;;5052059;28;20171;-52
2023/07/29 03:05:24;;;;;;;5.70;2.40;;;19.50;99.90;;;;;;5051704;28;20661;-52
2023/07/29 03:07:50;;;;;;;8.20;2.90;;;19.20;99.90;;;;;;5051631;28;20202;-50
2023/07/29 03:10:15;;;;;;;10.07;5.57;;;19.30;99.90;;;;;;5051823;28;20182;-51
2023/07/29 03:12:41;;;;;;;10.85;4.82;;;19.40;99.90;;;;;;5051818;28;20644;-50
2023/07/29 03:15:07;;;;;;;17.02;11.25;;;19.30;99.90;;;;;;5051546;28;20167;-51
2023/07/29 03:17:32;;;;;;;5.65;2.58;;;19.30;99.90;;;;;;5051436;28;20198;-48
2023/07/29 03:19:58;;;;;;;6.47;2.60;;;19.30;99.90;;;;;;5051399;28;20520;-49
2023/07/29 03:22:23;;;;;;;3.22;1.90;;;19.30;99.90;;;;;;5051146;28;20634;-49
2023/07/29 03:24:49;;;;;;;2.88;2.22;;;19.40;99.90;;;;;;5051245;28;20166;-51
2023/07/29 03:27:15;;;;;;;5.20;2.83;;;19.20;99.90;;;;;;5050128;28;20171;-48
2023/07/29 03:29:41;;;;;;;5.03;2.72;;;19.20;99.90;;;;;;5050424;28;20182;-51
2023/07/29 03:32:07;;;;;;;4.50;2.60;;;19.40;99.90;;;;;;5050930;28;20174;-47
2023/07/29 03:34:33;;;;;;;6.43;1.90;;;19.30;99.90;;;;;;5051187;28;20178;-52
2023/07/29 03:37:00;;;;;;;3.40;2.13;;;19.40;99.90;;;;;;5051067;28;20199;-50
2023/07/29 03:39:26;;;;;;;4.95;2.63;;;19.40;99.90;;;;;;5051311;28;20540;-51
2023/07/29 03:41:52;;;;;;;3.30;1.98;;;19.10;99.90;;;;;;5051117;28;20177;-51
2023/07/29 03:44:18;;;;;;;6.93;2.40;;;19.10;99.90;;;;;;5049902;28;20175;-51
2023/07/29 03:46:44;;;;;;;3.30;2.05;;;19.00;99.90;;;;;;5051750;28;20178;-50
2023/07/29 03:49:09;;;;;;;3.40;1.90;;;17.10;99.90;;;;;;5051351;28;20167;-52
2023/07/29 03:51:35;;;;;;;3.88;2.50;;;19.10;99.90;;;;;;5051069;28;20182;-48
2023/07/29 03:54:01;;;;;;;6.38;2.05;;;19.20;99.90;;;;;;5050378;28;20629;-47
2023/07/29 03:56:26;;;;;;;4.75;2.22;;;18.90;99.90;;;;;;5050820;28;20674;-48
2023/07/29 03:58:53;;;;;;;4.43;1.88;;;19.10;99.90;;;;;;5050916;28;20308;-48
2023/07/29 04:01:19;;;;;;;4.32;2.00;;;19.10;99.90;;;;;;5051186;28;20587;-52
2023/07/29 04:03:46;;;;;;;6.07;2.17;;;18.90;99.90;;;;;;5050785;28;20162;-49
2023/07/29 04:06:11;;;;;;;5.00;2.10;;;18.90;99.90;;;;;;5051255;28;20177;-50
2023/07/29 04:08:37;;;;;;;7.85;2.78;;;18.90;99.90;;;;;;5054449;28;20175;-49
2023/07/29 04:11:03;;;;;;;4.55;2.55;;;19.00;99.90;;;;;;5054987;28;20181;-50
2023/07/29 04:13:28;;;;;;;3.38;2.65;;;19.00;99.90;;;;;;5054834;28;20503;-48
2023/07/29 04:15:54;;;;;;;2.88;2.33;;;18.80;99.90;;;;;;5054778;28;20229;-49
2023/07/29 04:18:20;;;;;;;4.82;2.75;;;18.90;99.90;;;;;;5054937;28;20267;-51
2023/07/29 04:20:45;;;;;;;6.47;2.30;;;18.80;99.90;;;;;;5054772;28;20167;-50
2023/07/29 04:23:11;;;;;;;5.00;2.70;;;18.80;99.90;;;;;;5054957;28;20182;-52
2023/07/29 04:25:36;;;;;;;3.90;2.30;;;19.00;99.90;;;;;;5054583;28;20189;-53
2023/07/29 04:28:03;;;;;;;5.43;3.42;;;18.70;99.90;;;;;;5054479;28;20175;-48
2023/07/29 04:30:28;;;;;;;2.92;2.58;;;18.80;99.90;;;;;;5054706;28;20249;-51
2023/07/29 04:32:54;;;;;;;3.80;2.55;;;19.00;99.90;;;;;;5054544;28;20249;-51
2023/07/29 04:35:20;;;;;;;5.60;2.92;;;18.70;99.90;;;;;;5054746;28;20691;-47
2023/07/29 04:37:47;;;;;;;4.65;2.65;;;18.70;99.90;;;;;;5054476;28;20167;-50
2023/07/29 04:40:13;;;;;;;7.85;3.08;;;18.90;99.90;;;;;;5054740;28;20155;-50
2023/07/29 04:42:39;;;;;;;5.25;2.78;;;18.80;99.90;;;;;;5054416;28;20221;-48
2023/07/29 04:45:06;;;;;;;7.68;3.20;;;18.80;99.90;;;;;;5054333;28;20253;-48
2023/07/29 04:47:31;;;;;;;5.57;3.20;;;18.70;99.90;;;;;;5054327;28;20166;-49
2023/07/29 04:49:57;;;;;;;5.07;3.08;;;18.80;99.90;;;;;;5054186;28;20588;-51
2023/07/29 04:52:22;;;;;;;4.50;2.60;;;19.00;99.90;;;;;;5054021;28;20756;-52
2023/07/29 04:54:48;;;;;;;4.22;2.78;;;19.00;99.90;;;;;;5052802;28;20166;-51
2023/07/29 04:57:13;;;;;;;3.53;2.70;;;18.90;99.90;;;;;;5054467;28;20206;-48
2023/07/29 04:59:39;;;;;;;7.95;2.90;;;18.90;99.90;;;;;;5054419;28;20175;-51
2023/07/29 05:02:05;;;;;;;6.60;2.85;;;18.90;99.90;;;;;;5053997;28;20221;-52
2023/07/29 05:04:30;;;;;;;3.60;2.30;;;19.00;99.90;;;;;;5053913;28;20174;-52
2023/07/29 05:06:56;;;;;;;5.45;2.53;;;19.00;99.90;;;;;;5053875;28;20186;-53
2023/07/29 05:09:22;;;;;;;5.03;2.00;;;18.90;99.90;;;;;;5054028;28;20216;-52
2023/07/29 05:11:48;;;;;;;2.33;2.00;;;18.90;99.90;;;;;;5053704;28;20229;-52
2023/07/29 05:14:15;;;;;;;5.80;2.47;;;18.90;99.90;;;;;;5053805;28;20209;-49
2023/07/29 05:16:41;;;;;;;3.30;2.00;;;19.00;99.90;;;;;;5054142;28;20293;-52
2023/07/29 05:19:06;;;;;;;7.15;2.20;;;18.80;99.90;;;;;;5053270;28;20199;-53
2023/07/29 05:21:32;;;;;;;3.15;2.10;;;18.90;99.90;;;;;;5053264;28;20236;-52
2023/07/29 05:23:57;;;;;;;6.95;2.28;;;18.70;99.90;;;;;;5053287;28;20174;-51
2023/07/29 05:26:23;;;;;;;2.75;2.30;;;18.80;99.90;;;;;;5053645;28;20166;-52
2023/07/29 05:28:49;;;;;;;4.93;2.40;;;18.80;99.90;;;;;;5053526;28;20167;-52
2023/07/29 05:31:14;;;;;;;2.85;2.10;;;18.80;99.90;;;;;;5053488;28;20194;-52
2023/07/29 05:33:40;;;;;;;3.03;2.30;;;18.70;99.90;;;;;;5053967;28;20176;-52
2023/07/29 05:36:06;;;;;;;6.40;2.20;;;18.80;99.90;;;;;;5053185;28;20573;-52
2023/07/29 05:38:31;;;;;;;5.40;2.28;;;18.80;99.90;;;;;;5053453;28;20171;-51
2023/07/29 05:40:57;;;;;;;2.50;1.90;;;18.90;99.90;;;;;;5053144;28;20170;-52
2023/07/29 05:43:24;;;;;;;4.05;2.08;;;18.90;99.90;;;;;;5052150;28;20167;-51
2023/07/29 05:45:50;;;;;;;4.43;2.05;;;18.80;99.90;;;;;;5053125;28;20244;-52
2023/07/29 05:48:16;;;;;;;4.43;1.90;;;18.90;99.90;;;;;;5053389;28;20178;-52
2023/07/29 05:50:42;;;;;;;5.57;1.98;;;18.70;99.90;;;;;;5053398;28;20684;-50
2023/07/29 05:53:07;;;;;;;3.53;1.83;;;18.80;99.90;;;;;;5052805;28;20170;-51
2023/07/29 05:55:33;;;;;;;2.50;1.80;;;18.80;99.90;;;;;;5052981;28;20257;-52
2023/07/29 05:57:58;;;;;;;7.20;2.20;;;18.80;99.90;;;;;;5052987;28;20208;-51
2023/07/29 06:00:24;;;;;;;2.00;1.80;;;18.80;99.90;;;;;;5051478;28;20220;-49
2023/07/29 06:02:50;;;;;;;3.92;2.17;;;18.80;99.90;;;;;;5052891;28;20183;-51
2023/07/29 06:05:15;;;;;;;6.15;2.22;;;18.80;99.90;;;;;;5052764;28;20163;-52
2023/07/29 06:07:43;;;;;;;3.92;2.20;;;18.70;99.90;;;;;;5053160;28;20166;-52
2023/07/29 06:10:11;;;;;;;9.10;2.20;;;18.90;99.90;;;;;;5053181;28;20214;-52
2023/07/29 06:12:37;;;;;;;7.10;2.20;;;18.80;99.90;;;;;;5052369;28;20692;-52
2023/07/29 06:15:04;;;;;;;2.42;2.08;;;18.80;99.90;;;;;;5052840;28;20246;-52
2023/07/29 06:17:30;;;;;;;3.50;2.10;;;18.70;99.90;;;;;;5052363;28;20206;-52
2023/07/29 06:19:55;;;;;;;3.30;2.30;;;18.80;99.90;;;;;;5052138;28;20178;-52
2023/07/29 06:22:21;;;;;;;2.55;2.03;;;18.60;99.90;;;;;;5052373;28;20162;-52
2023/07/29 06:24:46;;;;;;;4.85;2.00;;;18.80;99.90;;;;;;5052563;28;20182;-52
2023/07/29 06:27:12;;;;;;;4.80;2.17;;;18.80;99.90;;;;;;5052501;28;20277;-51
2023/07/29 06:29:37;;;;;;;3.58;1.90;;;18.80;99.90;;;;;;5051653;28;20261;-51
2023/07/29 06:32:03;;;;;;;3.17;2.35;;;18.80;99.90;;;;;;5052334;28;20223;-51
2023/07/29 06:34:29;;;;;;;3.97;2.22;;;18.70;99.90;;;;;;5051086;28;20261;-51
2023/07/29 06:36:54;;;;;;;4.13;2.30;;;18.80;99.90;;;;;;5052224;28;20207;-52
2023/07/29 06:39:20;;;;;;;4.55;1.90;;;18.70;99.90;;;;;;5050742;28;20167;-51
2023/07/29 06:41:45;;;;;;;4.65;2.15;;;18.80;99.90;;;;;;5052132;28;20189;-50
2023/07/29 06:44:11;;;;;;;5.30;2.17;;;18.90;99.90;;;;;;5052376;28;20523;-51
2023/07/29 06:46:36;;;;;;;4.63;2.28;;;18.80;99.90;;;;;;5053027;28;20206;-51
2023/07/29 06:49:02;;;;;;;4.38;2.03;;;19.00;99.90;;;;;;5052344;28;20208;-51
2023/07/29 06:51:32;;;;;;;3.78;1.80;;;19.10;99.90;;;;;;5051995;28;20517;-51
2023/07/29 06:53:58;;;;;;;3.15;1.77;;;19.10;99.90;;;;;;5051938;28;20198;-51
2023/07/29 06:56:24;;;;;;;5.20;2.20;;;19.20;99.90;;;;;;5052116;28;20208;-51
2023/07/29 06:58:49;;;;;;;3.28;1.98;;;19.30;99.90;;;;;;5052071;28;20166;-51
2023/07/29 07:01:15;;;;;;;4.13;2.13;;;19.50;99.90;;;;;;5052268;28;20190;-51
2023/07/29 07:03:40;;;;;;;4.80;2.50;;;19.40;99.90;;;;;;5052369;28;20254;-50
2023/07/29 07:06:06;;;;;;;3.67;2.40;;;19.50;99.90;;;;;;5052059;28;20191;-50
2023/07/29 07:08:31;;;;;;;3.50;2.63;;;19.70;99.90;;;;;;5051939;28;20638;-52
2023/07/29 07:10:57;;;;;;;4.93;2.60;;;19.80;99.90;;;;;;5051977;28;20234;-51
2023/07/29 07:13:22;;;;;;;3.90;2.10;;;19.90;99.90;;;;;;5051837;28;20193;-51
2023/07/29 07:15:49;;;;;;;3.25;1.95;;;20.00;99.90;;;;;;5051846;28;20309;-51
2023/07/29 07:18:15;;;;;;;3.53;2.25;;;20.20;99.90;;;;;;5051698;28;20194;-51
2023/07/29 07:20:40;;;;;;;4.85;2.30;;;20.40;99.90;;;;;;5052188;28;20166;-51
2023/07/29 07:23:10;;;;;;;3.08;2.00;;;20.40;99.90;;;;;;5051607;28;20233;-52
2023/07/29 07:25:36;;;;;;;3.10;2.10;;;20.50;99.90;;;;;;5052022;28;20586;-51
2023/07/29 07:28:01;;;;;;;2.38;1.83;;;20.60;99.90;;;;;;5051960;28;20253;-52
2023/07/29 07:30:27;;;;;;;3.80;1.98;;;20.80;99.90;;;;;;5051572;28;20625;-52
2023/07/29 07:32:52;;;;;;;1.90;1.70;;;21.10;99.90;;;;;;5051798;28;20190;-52
2023/07/29 07:35:18;;;;;;;1.70;1.60;;;20.90;99.90;;;;;;5051677;28;20162;-51
2023/07/29 07:37:44;;;;;;;2.00;1.60;;;20.80;99.90;;;;;;5051765;28;20233;-52
2023/07/29 07:40:10;;;;;;;3.58;1.90;;;20.60;99.90;;;;;;5051893;28;20590;-51
2023/07/29 07:42:36;;;;;;;2.85;1.67;;;20.50;99.90;;;;;;5051421;28;20179;-51
2023/07/29 07:45:02;;;;;;;5.68;1.80;;;20.50;99.90;;;;;;5051409;28;20646;-52
2023/07/29 07:47:27;;;;;;;6.35;1.60;;;20.50;99.90;;;;;;5051368;28;20171;-52
2023/07/29 07:49:53;;;;;;;2.40;1.95;;;20.60;99.90;;;;;;5051403;28;20174;-51
2023/07/29 07:52:18;;;;;;;2.33;1.65;;;20.70;99.90;;;;;;5051122;28;20178;-52
2023/07/29 07:54:44;;;;;;;6.07;1.73;;;20.70;99.90;;;;;;5051331;28;20163;-51
2023/07/29 07:57:09;;;;;;;1.92;1.60;;;20.70;99.90;;;;;;5051626;28;20289;-52
2023/07/29 07:59:35;;;;;;;2.67;1.60;;;20.80;99.90;;;;;;5051345;28;20167;-51
2023/07/29 08:02:01;;;;;;;2.50;1.58;;;20.80;99.90;;;;;;5051221;28;20178;-52
2023/07/29 08:04:26;;;;;;;4.57;1.52;;;21.00;99.90;;;;;;5051348;28;20623;-51
2023/07/29 08:06:52;;;;;;;1.70;1.60;;;21.10;99.90;;;;;;5051439;28;20228;-51
2023/07/29 08:09:17;;;;;;;3.38;1.30;;;21.10;99.90;;;;;;5051474;28;20170;-52
2023/07/29 08:11:43;;;;;;;3.45;1.45;;;21.20;99.90;;;;;;5051002;28;20229;-48
2023/07/29 08:14:08;;;;;;;2.25;1.55;;;21.30;99.90;;;;;;5051678;28;20257;-52
2023/07/29 08:16:34;;;;;;;2.17;1.75;;;21.40;99.90;;;;;;5051042;28;20206;-52
2023/07/29 08:18:59;;;;;;;1.95;1.38;;;21.80;99.90;;;;;;5051117;28;20220;-52
2023/07/29 08:21:27;;;;;;;5.70;1.67;;;21.70;99.90;;;;;;5050965;28;20181;-52
2023/07/29 08:23:52;;;;;;;2.42;1.40;;;22.00;99.90;;;;;;5049640;28;20170;-52
2023/07/29 08:26:18;;;;;;;3.75;1.85;;;22.30;99.90;;;;;;5051165;28;20178;-52
2023/07/29 08:28:43;;;;;;;2.45;1.60;;;22.50;99.90;;;;;;5051080;28;20177;-51
2023/07/29 08:31:09;;;;;;;2.33;1.33;;;22.50;99.90;;;;;;5051569;28;20166;-52
2023/07/29 08:33:34;;;;;;;1.50;1.40;;;22.20;99.90;;;;;;5051265;28;20178;-52
2023/07/29 08:36:01;;;;;;;2.22;1.30;;;21.90;99.90;;;;;;5051058;28;20772;-52
2023/07/29 08:38:26;;;;;;;3.25;1.40;;;21.80;99.90;;;;;;5050920;28;20174;-52
2023/07/29 08:41:13;;;;;;;2.78;1.30;;;21.80;99.90;;;;;;5051117;28;20171;-51
2023/07/29 08:44:01;;;;;;;1.85;1.65;;;21.80;99.90;;;;;;5051424;28;20261;-51
2023/07/29 08:46:28;;;;;;;2.08;1.40;;;21.60;99.90;;;;;;5050903;28;20690;-51
2023/07/29 08:48:55;;;;;;;3.17;1.50;;;21.70;99.90;;;;;;5051229;28;20171;-52
2023/07/29 08:51:23;;;;;;;2.38;1.55;;;21.70;99.90;;;;;;5050555;28;20626;-53
2023/07/29 08:53:49;;;;;;;3.58;1.50;;;21.60;99.90;;;;;;5052499;28;20193;-52
2023/07/29 08:56:15;;;;;;;1.60;1.48;;;21.60;99.90;;;;;;5054558;28;20275;-52
2023/07/29 08:58:42;;;;;;;2.97;1.45;;;21.70;99.90;;;;;;5054962;28;20231;-51
2023/07/29 09:01:08;;;;;;;1.98;1.33;;;21.90;99.90;;;;;;5055002;28;20221;-51
2023/07/29 09:03:34;;;;;;;1.50;1.35;;;21.90;99.90;;;;;;5054406;28;20505;-52
2023/07/29 09:06:01;;;;;;;3.40;1.48;;;21.80;99.90;;;;;;5054272;28;20580;-51
2023/07/29 09:08:28;;;;;;;2.53;1.50;;;22.00;99.90;;;;;;5054396;28;20166;-52
2023/07/29 09:10:55;;;;;;;1.75;1.58;;;22.10;99.90;;;;;;5054268;28;20533;-51
2023/07/29 09:13:21;;;;;;;3.22;1.27;;;22.10;99.90;;;;;;5054198;28;20182;-51
2023/07/29 09:15:46;;;;;;;2.70;1.30;;;22.30;99.90;;;;;;5054432;28;20174;-52
2023/07/29 09:18:16;;;;;;;4.30;1.52;;;22.30;99.90;;;;;;5054578;28;20170;-52
2023/07/29 09:20:42;;;;;;;4.72;1.30;;;22.80;99.90;;;;;;5054451;28;20182;-51
2023/07/29 09:23:10;;;;;;;2.72;1.45;;;22.60;99.90;;;;;;5054518;28;20246;-51
2023/07/29 09:25:36;;;;;;;3.17;1.67;;;22.80;99.90;;;;;;5054076;28;20215;-52
2023/07/29 09:28:10;;;;;;;1.20;1.10;;;22.90;99.90;;;;;;5054085;28;21334;-51
2023/07/29 09:30:37;;;;;;;2.70;1.50;;;23.00;99.90;;;;;;5053923;28;20333;-52
2023/07/29 09:33:03;;;;;;;4.35;1.70;;;22.90;99.90;;;;;;5053887;28;20304;-51
2023/07/29 09:35:32;;;;;;;1.95;1.50;;;22.70;99.90;;;;;;5054006;28;20203;-52
2023/07/29 09:37:58;;;;;;;1.73;1.38;;;22.40;99.90;;;;;;5053801;28;20638;-52
2023/07/29 09:40:23;;;;;;;4.38;1.48;;;22.30;99.90;;;;;;5053729;28;20181;-50
2023/07/29 09:42:55;;;;;;;2.75;1.50;;;22.50;99.90;;;;;;5053672;28;20216;-50
2023/07/29 09:45:22;;;;;;;1.50;1.40;;;23.00;99.90;;;;;;5052442;28;20269;-51
2023/07/29 09:47:48;;;;;;;1.60;1.30;;;22.80;99.90;;;;;;5035698;28;20194;-51
2023/07/29 09:50:13;;;;;;;3.35;1.88;;;22.80;99.90;;;;;;5053755;28;20177;-51
2023/07/29 09:52:39;;;;;;;1.48;1.35;;;22.70;99.90;;;;;;5053696;28;20245;-51
2023/07/29 09:55:06;;;;;;;2.35;1.40;;;22.50;99.90;;;;;;5053287;28;20547;-51
2023/07/29 09:57:32;;;;;;;2.92;1.60;;;22.60;99.90;;;;;;5053580;28;20221;-51
2023/07/29 09:59:57;;;;;;;1.50;1.40;;;22.50;99.90;;;;;;5053377;28;20265;-52
2023/07/29 10:02:25;;;;;;;2.55;1.30;;;22.40;99.90;;;;;;5053447;28;20237;-48
2023/07/29 10:04:52;;;;;;;1.50;1.30;;;22.40;99.90;;;;;;5052389;28;20170;-51
2023/07/29 10:07:18;;;;;;;1.58;1.48;;;22.20;99.90;;;;;;5053225;28;20170;-51
2023/07/29 10:09:45;;;;;;;2.72;1.52;;;22.20;99.90;;;;;;5053210;28;20175;-52
2023/07/29 10:12:11;;;;;;;2.70;1.67;;;22.20;99.90;;;;;;5053446;28;20304;-50
2023/07/29 10:14:38;;;;;;;1.70;1.60;;;22.10;99.90;;;;;;5053172;28;20250;-50
2023/07/29 10:17:05;;;;;;;2.60;1.52;;;22.00;99.90;;;;;;5052991;28;20206;-53
2023/07/29 10:19:31;;;;;;;3.25;1.70;;;21.90;99.90;;;;;;5053250;28;20166;-52
2023/07/29 10:22:01;;;;;;;2.42;1.70;;;22.00;99.90;;;;;;5052669;28;20641;-50
2023/07/29 10:24:30;;;;;;;2.63;1.60;;;22.20;99.90;;;;;;5052905;28;20174;-53
2023/07/29 10:26:59;;;;;;;3.72;1.98;;;22.30;99.90;;;;;;5052840;28;20192;-52
2023/07/29 10:29:28;;;;;;;2.22;1.70;;;22.30;99.90;;;;;;5053164;28;20259;-52
2023/07/29 10:31:57;;;;;;;2.05;1.50;;;22.30;99.90;;;;;;5052786;28;20166;-52
2023/07/29 10:34:24;;;;;;;4.53;1.50;;;22.10;99.90;;;;;;5052753;28;20166;-52
2023/07/29 10:36:50;;;;;;;2.70;1.60;;;22.10;99.90;;;;;;5052597;28;20206;-52
2023/07/29 10:39:15;;;;;;;1.63;1.40;;;22.30;99.90;;;;;;5052665;28;20208;-52
2023/07/29 10:42:04;;;;;;;1.80;1.70;;;22.30;99.90;;;;;;5053260;28;20597;-52
2023/07/29 10:44:39;;;;;;;1.75;1.30;;;22.50;99.90;;;;;;5052553;28;20169;-52
2023/07/29 10:47:27;;;;;;;1.80;1.70;;;22.60;99.90;;;;;;5052542;28;20203;-52
2023/07/29 10:49:57;;;;;;;2.28;1.50;;;22.60;99.90;;;;;;5052709;28;20182;-53
2023/07/29 10:52:35;;;;;;;2.08;1.65;;;22.70;99.90;;;;;;5052318;28;20244;-51
2023/07/29 10:55:02;;;;;;;1.80;1.50;;;23.00;99.90;;;;;;5052098;28;20744;-49
2023/07/29 10:57:33;;;;;;;3.90;1.73;;;22.80;99.90;;;;;;5052247;28;20716;-52
2023/07/29 10:59:59;;;;;;;4.22;2.30;;;22.70;99.90;;;;;;5052170;28;20660;-52
2023/07/29 11:02:30;;;;;;;4.28;2.00;;;22.60;99.90;;;;;;5052151;28;20201;-50
2023/07/29 11:04:56;;;;;;;2.10;1.88;;;23.10;99.90;;;;;;5052103;28;20253;-50
2023/07/29 11:07:25;;;;;;;6.25;2.15;;;23.00;99.90;;;;;;5052090;28;20520;-51
2023/07/29 11:10:04;;;;;;;2.92;2.10;;;23.10;99.90;;;;;;5052503;28;20558;-48
2023/07/29 11:12:50;;;;;;;3.17;2.22;;;23.20;99.90;;;;;;5050694;28;20221;-48
2023/07/29 11:15:23;;;;;;;3.08;2.08;;;23.50;99.90;;;;;;5052650;28;20532;-49
2023/07/29 11:17:50;;;;;;;3.35;1.70;;;23.50;99.90;;;;;;5051952;28;20209;-49
2023/07/29 11:20:18;;;;;;;1.88;1.65;;;24.00;99.90;;;;;;5051963;28;20224;-50
2023/07/29 11:22:44;;;;;;;4.28;1.80;;;24.10;99.90;;;;;;5030626;28;20209;-51
2023/07/29 11:25:12;;;;;;;3.67;2.03;;;24.10;99.90;;;;;;5051139;28;20178;-49
2023/07/29 11:27:39;;;;;;;2.03;1.63;;;24.60;99.90;;;;;;5051349;28;20166;-49
2023/07/29 11:30:10;;;;;;;2.13;1.67;;;24.90;99.90;;;;;;5034283;28;20173;-51
2023/07/29 11:32:37;;;;;;;3.03;1.58;;;24.50;99.90;;;;;;5051828;28;20175;-48
2023/07/29 11:35:10;;;;;;;1.55;1.45;;;24.00;99.90;;;;;;5050467;28;20166;-49
2023/07/29 11:37:37;;;;;;;2.33;1.90;;;23.80;99.90;;;;;;5051806;28;20205;-49
2023/07/29 11:40:04;;;;;;;2.70;1.70;;;23.80;99.90;;;;;;5050419;28;20171;-47
2023/07/29 11:42:33;;;;;;;1.85;1.73;;;23.80;99.90;;;;;;5051847;28;20174;-48
2023/07/29 11:44:59;;;;;;;3.10;1.70;;;23.90;99.90;;;;;;5050373;28;20197;-47
2023/07/29 11:47:25;;;;;;;1.73;1.63;;;23.80;99.90;;;;;;5033780;28;20541;-48
2023/07/29 11:49:50;;;;;;;1.70;1.60;;;23.90;99.90;;;;;;5051744;28;20166;-49
2023/07/29 11:52:19;;;;;;;2.78;1.83;;;23.80;99.90;;;;;;5050472;28;20178;-48
2023/07/29 11:54:47;;;;;;;2.60;1.65;;;23.60;99.90;;;;;;5051692;28;20173;-47
2023/07/29 11:57:14;;;;;;;1.70;1.60;;;23.70;99.90;;;;;;5051527;28;20244;-51
2023/07/29 11:59:41;;;;;;;2.08;1.85;;;23.90;99.90;;;;;;5051930;28;20181;-48
2023/07/29 12:02:13;;;;;;;3.90;1.90;;;24.00;99.90;;;;;;5051982;28;20178;-48
2023/07/29 12:04:39;;;;;;;2.05;1.60;;;23.80;99.90;;;;;;5050542;28;20232;-51
2023/07/29 12:07:06;;;;;;;2.28;1.80;;;23.60;99.90;;;;;;5051219;28;20165;-52
2023/07/29 12:09:32;;;;;;;3.13;1.80;;;23.50;99.90;;;;;;5051185;28;20708;-52
2023/07/29 12:11:58;;;;;;;2.00;1.80;;;23.30;99.90;;;;;;5050659;28;20225;-52
2023/07/29 12:14:27;;;;;;;2.03;1.90;;;23.30;99.90;;;;;;5051248;28;20173;-52
2023/07/29 12:16:53;;;;;;;2.30;1.58;;;23.90;99.90;;;;;;5050911;28;20734;-51
2023/07/29 12:19:19;;;;;;;4.00;1.83;;;24.10;99.90;;;;;;5051055;28;20171;-52
2023/07/29 12:21:45;;;;;;;3.25;2.20;;;24.00;99.90;;;;;;5050908;28;20227;-50
2023/07/29 12:24:14;;;;;;;1.67;1.58;;;23.80;99.90;;;;;;5049740;28;20223;-52
2023/07/29 12:26:41;;;;;;;2.72;2.22;;;24.10;99.90;;;;;;5051442;28;20170;-52
2023/07/29 12:29:19;;;;;;;2.28;1.88;;;24.80;99.90;;;;;;5053952;28;20722;-51
2023/07/29 12:31:45;;;;;;;2.03;1.65;;;25.30;99.90;;;;;;5055302;28;20177;-52
2023/07/29 12:34:18;;;;;;;2.15;1.67;;;25.50;99.90;;;;;;5055568;28;20185;-52
2023/07/29 12:36:45;;;;;;;2.42;1.75;;;25.60;99.90;;;;;;5054838;28;20750;-52
2023/07/29 12:39:24;;;;;;;2.95;1.85;;;25.30;99.90;;;;;;5055527;28;20174;-51
2023/07/29 12:41:51;;;;;;;5.30;2.55;;;25.00;99.90;;;;;;5055147;28;20174;-51
2023/07/29 12:44:17;;;;;;;4.78;2.50;;;24.90;99.90;;;;;;5054830;28;20512;-52